Terminal Aerodrome Forecast
Issued by NWS

Home | Current Version | Previous Version | Graphics & Text | Print | Product List | Glossary On
Versions: 1 2 3 4 5 6 7 8 9 10 11 12 13 14 15 16 17 18 19
000
FTUS43 KBIS 212300
TAFJMS
TAF
KJMS 212322Z 2200/2224 10011KT P6SM BKN025 BKN035 OVC130
      TEMPO 2200/2202 VRB35G50KT 1SM +TSRAGR SCT012 OVC045CB
     FM220200 36010KT P6SM VCTS SCT020 OVC050CB
     FM220400 34011KT P6SM BKN050
     FM220700 35010KT P6SM VCFG SCT009 BKN018
     FM221600 01009KT P6SM SCT025 SCT060=

USA.gov is the U.S. government's official web portal to all federal, state and local government web resources and services.